Time;durP1;ratioP1;P1;durP2;ratioP2;P2;SDS_P1;SDS_P2;PMS_P1;PMS_P2;Temp;Humidity;BMP_temperature;BMP_pressure;BME280_temperature;BME280_humidity;BME280_pressure;Samples;Min_cycle;Max_cycle;Signal;HPM_P1;HPM_P2
2022/01/27 00:00:43;;;;;;;40.27;21.37;;;6.10;99.90;;;;;;5072444;27;49024;-76
2022/01/27 00:05:54;;;;;;;34.33;20.10;;;6.10;99.90;;;;;;5080662;28;37987;-76
2022/01/27 00:08:32;;;;;;;39.03;20.40;;;6.10;99.90;;;;;;5054252;28;39188;-76
2022/01/27 00:11:08;;;;;;;37.87;19.93;;;6.10;99.90;;;;;;5064665;27;39034;-76
2022/01/27 00:13:49;;;;;;;31.80;19.57;;;6.10;99.90;;;;;;5065843;28;47374;-77
2022/01/27 00:16:35;;;;;;;34.97;19.60;;;6.10;99.90;;;;;;5055707;28;37206;-76
2022/01/27 00:19:01;;;;;;;38.73;18.87;;;6.20;99.90;;;;;;5036871;28;38679;-77
2022/01/27 00:21:30;;;;;;;34.57;18.30;;;6.20;99.90;;;;;;5054741;28;46586;-76
2022/01/27 00:23:56;;;;;;;34.27;19.27;;;6.30;99.90;;;;;;5068502;28;38747;-76
2022/01/27 00:26:23;;;;;;;34.03;18.93;;;6.30;99.90;;;;;;5052224;27;36245;-76
2022/01/27 00:28:50;;;;;;;38.27;19.00;;;6.30;99.90;;;;;;5080843;28;38889;-76
2022/01/27 00:31:21;;;;;;;37.80;18.90;;;6.30;99.90;;;;;;5066049;27;39049;-76
2022/01/27 00:33:52;;;;;;;34.63;19.07;;;6.30;99.90;;;;;;5075648;28;38632;-76
2022/01/27 00:36:24;;;;;;;32.83;17.37;;;6.40;99.90;;;;;;5050008;28;36693;-75
2022/01/27 00:38:50;;;;;;;34.27;20.57;;;6.40;99.90;;;;;;5038740;28;37467;-76
2022/01/27 00:41:19;;;;;;;32.50;18.03;;;6.40;99.90;;;;;;5036749;28;38341;-76
2022/01/27 00:43:48;;;;;;;33.30;18.77;;;6.50;99.90;;;;;;5031112;28;38816;-76
2022/01/27 00:46:20;;;;;;;30.10;18.23;;;6.60;99.90;;;;;;5034863;28;37507;-76
2022/01/27 00:48:50;;;;;;;32.00;18.98;;;6.60;99.90;;;;;;5051475;28;39921;-76
2022/01/27 00:51:21;;;;;;;36.03;18.37;;;6.70;99.90;;;;;;5022887;28;38327;-76
2022/01/27 00:56:31;;;;;;;30.93;17.53;;;6.60;99.90;;;;;;5041633;28;37713;-76
2022/01/27 01:01:29;;;;;;;33.57;17.90;;;6.70;99.90;;;;;;5036651;28;38351;-76
2022/01/27 01:03:59;;;;;;;34.17;18.27;;;6.70;99.90;;;;;;5039734;28;37868;-76
2022/01/27 01:06:37;;;;;;;36.83;18.10;;;6.70;99.90;;;;;;5039763;28;38201;-77
2022/01/27 01:10:09;;;;;;;30.00;18.50;;;6.70;99.90;;;;;;5038455;28;39335;-76
2022/01/27 01:17:09;;;;;;;34.20;20.10;;;6.60;99.90;;;;;;5032956;28;38481;-76
2022/01/27 01:20:17;;;;;;;37.87;20.40;;;6.60;99.90;;;;;;5023253;28;47203;-77
2022/01/27 01:29:26;;;;;;;34.70;20.57;;;6.50;99.90;;;;;;5008244;28;49102;-76
2022/01/27 01:34:43;;;;;;;35.33;20.88;;;6.40;99.90;;;;;;5039311;28;38974;-76
2022/01/27 01:39:30;;;;;;;41.43;21.27;;;6.40;99.90;;;;;;5064384;28;37806;-76
2022/01/27 01:41:57;;;;;;;36.33;20.40;;;6.40;99.90;;;;;;5047071;28;39416;-76
2022/01/27 01:44:24;;;;;;;38.50;21.90;;;6.40;99.90;;;;;;5071814;28;37999;-76
2022/01/27 01:46:52;;;;;;;37.73;22.57;;;6.40;99.90;;;;;;5050123;28;39214;-76
2022/01/27 01:49:26;;;;;;;37.53;20.27;;;6.40;99.90;;;;;;5078456;27;38211;-76
2022/01/27 01:51:56;;;;;;;40.43;21.27;;;6.40;99.90;;;;;;5059031;28;37600;-76
2022/01/27 01:54:23;;;;;;;42.90;21.87;;;6.40;99.90;;;;;;5053852;28;37381;-76
2022/01/27 01:56:50;;;;;;;41.50;21.97;;;6.30;99.90;;;;;;5068042;27;37962;-76
2022/01/27 01:59:19;;;;;;;38.20;21.50;;;6.20;99.90;;;;;;5081406;28;37282;-76
2022/01/27 02:01:45;;;;;;;39.47;20.07;;;6.10;99.90;;;;;;5044622;28;38165;-76
2022/01/27 02:04:14;;;;;;;43.10;21.03;;;6.10;99.90;;;;;;5008051;28;37981;-76
2022/01/27 02:06:57;;;;;;;42.90;22.10;;;6.00;99.90;;;;;;5074685;27;37000;-76
2022/01/27 02:09:33;;;;;;;;;;;6.00;99.90;;;;;;5070335;28;38479;-76
2022/01/27 02:20:16;;;;;;;49.57;20.27;;;5.80;99.90;;;;;;5066210;28;37944;-76
2022/01/27 02:22:51;;;;;;;42.87;22.27;;;5.80;99.90;;;;;;5075154;28;38944;-76
2022/01/27 02:25:20;;;;;;;38.93;21.33;;;5.80;99.90;;;;;;5051011;27;37600;-76
2022/01/27 02:27:55;;;;;;;49.00;22.23;;;5.70;99.90;;;;;;5053031;28;37127;-76
2022/01/27 02:30:22;;;;;;;41.87;21.93;;;5.70;99.90;;;;;;5049278;27;37689;-76
2022/01/27 02:32:59;;;;;;;42.43;21.83;;;5.60;99.90;;;;;;5042016;28;37990;-76
2022/01/27 02:35:30;;;;;;;43.67;23.47;;;5.60;99.90;;;;;;5076746;27;37574;-76
2022/01/27 02:38:00;;;;;;;44.10;22.75;;;5.50;99.90;;;;;;5056393;28;36912;-76
2022/01/27 02:40:26;;;;;;;41.37;22.87;;;5.60;99.90;;;;;;5075357;27;37314;-76
2022/01/27 02:42:55;;;;;;;40.67;22.80;;;5.50;99.90;;;;;;5040474;28;37485;-76
2022/01/27 02:46:12;;;;;;;52.77;23.70;;;5.50;99.90;;;;;;5031032;27;36451;-76
2022/01/27 02:48:41;;;;;;;43.93;22.53;;;5.60;99.90;;;;;;5015785;28;48751;-76
2022/01/27 02:51:07;;;;;;;45.10;21.77;;;5.60;99.90;;;;;;5003280;28;37258;-76
2022/01/27 02:53:33;;;;;;;44.50;22.43;;;5.70;99.90;;;;;;5028567;28;37952;-76
2022/01/27 02:56:02;;;;;;;43.50;21.63;;;5.70;99.90;;;;;;5060497;28;37216;-76
2022/01/27 02:58:28;;;;;;;38.67;20.77;;;5.70;99.90;;;;;;5050581;28;47551;-76
2022/01/27 03:00:54;;;;;;;42.37;22.13;;;5.70;99.90;;;;;;5052209;28;36808;-76
2022/01/27 03:03:23;;;;;;;35.07;20.93;;;5.70;99.90;;;;;;5050710;28;39212;-76
2022/01/27 03:05:52;;;;;;;39.17;21.80;;;5.70;99.90;;;;;;5078564;27;38794;-76
2022/01/27 03:08:21;;;;;;;49.33;21.37;;;5.70;99.90;;;;;;5054690;27;37028;-76
2022/01/27 03:11:01;;;;;;;42.93;22.87;;;5.60;99.90;;;;;;5062905;28;38086;-76
2022/01/27 03:13:30;;;;;;;48.07;22.87;;;5.50;99.90;;;;;;5077497;28;48714;-76
2022/01/27 03:15:59;;;;;;;42.47;22.43;;;5.50;99.90;;;;;;5063263;28;38570;-76
2022/01/27 03:18:28;;;;;;;48.27;24.77;;;5.40;99.90;;;;;;5041889;28;37631;-76
2022/01/27 03:20:57;;;;;;;48.23;23.77;;;5.40;99.90;;;;;;5060770;28;38112;-76
2022/01/27 03:23:23;;;;;;;41.63;23.03;;;5.30;99.90;;;;;;5063894;28;37935;-76
2022/01/27 03:25:49;;;;;;;56.23;26.83;;;5.20;99.90;;;;;;5069795;27;38869;-76
2022/01/27 03:28:18;;;;;;;44.60;24.37;;;5.30;99.90;;;;;;5027898;28;38265;-76
2022/01/27 03:30:44;;;;;;;49.83;26.07;;;5.30;99.90;;;;;;5053715;27;36243;-76
2022/01/27 03:33:10;;;;;;;52.90;25.60;;;5.30;99.90;;;;;;5063843;27;41635;-76
2022/01/27 03:35:39;;;;;;;50.10;24.93;;;5.30;99.90;;;;;;5057002;28;38541;-76
2022/01/27 03:38:08;;;;;;;51.27;23.97;;;5.30;99.90;;;;;;5041331;28;38729;-75
2022/01/27 03:40:34;;;;;;;58.27;25.23;;;5.30;99.90;;;;;;5028842;28;36991;-76
2022/01/27 03:43:06;;;;;;;50.53;24.73;;;5.30;99.90;;;;;;5039019;28;40039;-76
2022/01/27 03:45:33;;;;;;;53.40;24.70;;;5.30;99.90;;;;;;5036490;28;47087;-75
2022/01/27 03:47:59;;;;;;;51.53;23.97;;;5.30;99.90;;;;;;5034149;28;36938;-76
2022/01/27 03:50:25;;;;;;;49.60;25.23;;;5.30;99.90;;;;;;5033792;28;36285;-76
2022/01/27 03:52:51;;;;;;;49.73;24.30;;;5.30;99.90;;;;;;5035550;28;39846;-75
2022/01/27 03:55:23;;;;;;;51.30;24.57;;;5.30;99.90;;;;;;5025511;28;41152;-74
2022/01/27 03:57:49;;;;;;;53.73;24.17;;;5.30;99.90;;;;;;5038269;28;37366;-75
2022/01/27 04:00:16;;;;;;;57.27;24.17;;;5.30;99.90;;;;;;5037444;28;36220;-74
2022/01/27 04:02:55;;;;;;;48.83;22.67;;;5.40;99.90;;;;;;5032082;28;39667;-74
2022/01/27 04:05:21;;;;;;;48.47;23.27;;;5.40;99.90;;;;;;5038727;28;37991;-76
2022/01/27 04:07:56;;;;;;;47.10;22.13;;;5.50;99.90;;;;;;5031844;28;38794;-76
2022/01/27 04:10:23;;;;;;;49.03;22.53;;;5.50;99.90;;;;;;5022303;28;36925;-76
2022/01/27 04:12:52;;;;;;;43.67;21.20;;;5.60;99.90;;;;;;5040496;27;39137;-74
2022/01/27 04:15:19;;;;;;;49.53;21.20;;;5.70;99.90;;;;;;5037166;28;38490;-74
2022/01/27 04:17:45;;;;;;;50.40;20.60;;;5.70;99.90;;;;;;5042491;28;36721;-75
2022/01/27 04:20:11;;;;;;;47.40;19.50;;;5.80;99.90;;;;;;5035750;28;37493;-75
2022/01/27 04:22:40;;;;;;;48.40;19.43;;;5.90;99.90;;;;;;5042764;28;38265;-76
2022/01/27 04:25:06;;;;;;;40.20;18.60;;;5.90;99.90;;;;;;5032397;28;38236;-75
2022/01/27 04:27:36;;;;;;;40.00;17.73;;;6.00;99.90;;;;;;5033330;28;39318;-77
2022/01/27 04:30:04;;;;;;;35.00;16.43;;;6.10;99.90;;;;;;5050536;28;38607;-77
2022/01/27 04:32:39;;;;;;;44.43;18.27;;;6.10;99.90;;;;;;5037765;28;40549;-76
2022/01/27 04:35:07;;;;;;;40.47;16.40;;;6.10;99.90;;;;;;5034827;28;38760;-76
2022/01/27 04:37:41;;;;;;;42.97;16.27;;;6.20;99.90;;;;;;5033797;28;39481;-77
2022/01/27 04:40:15;;;;;;;42.20;16.03;;;6.20;99.90;;;;;;5035274;28;38675;-77
2022/01/27 04:42:56;;;;;;;37.17;15.67;;;6.30;99.90;;;;;;5044967;28;40153;-77
2022/01/27 04:45:28;;;;;;;38.10;15.73;;;6.30;99.90;;;;;;5038476;28;39461;-77
2022/01/27 04:48:04;;;;;;;40.53;15.20;;;6.40;99.90;;;;;;5036291;28;39073;-75
2022/01/27 04:50:30;;;;;;;34.20;13.80;;;6.40;99.90;;;;;;5052160;28;47240;-77
2022/01/27 04:53:01;;;;;;;32.63;12.83;;;6.50;99.90;;;;;;5044397;28;38907;-77
2022/01/27 04:55:31;;;;;;;29.90;12.90;;;6.60;99.90;;;;;;5035528;28;47664;-77
2022/01/27 04:58:11;;;;;;;34.77;12.60;;;6.60;99.90;;;;;;5040275;28;38196;-76
2022/01/27 05:00:37;;;;;;;26.37;11.80;;;6.60;99.90;;;;;;5033844;28;46991;-77
2022/01/27 05:03:12;;;;;;;29.60;12.57;;;6.70;99.90;;;;;;5023093;28;39858;-77
2022/01/27 05:05:41;;;;;;;33.33;12.17;;;6.70;99.90;;;;;;5028424;28;37380;-77
2022/01/27 05:08:16;;;;;;;30.80;11.80;;;6.80;99.90;;;;;;5037640;28;36736;-77
2022/01/27 05:11:11;;;;;;;32.30;11.63;;;6.90;99.90;;;;;;5023433;28;37368;-77
2022/01/27 05:13:48;;;;;;;27.53;11.60;;;6.90;99.90;;;;;;5031896;28;49073;-77
2022/01/27 05:16:14;;;;;;;33.80;12.07;;;7.00;99.90;;;;;;5050738;28;39298;-76
2022/01/27 05:18:41;;;;;;;36.83;12.77;;;7.10;99.90;;;;;;5036206;28;38351;-76
2022/01/27 05:21:10;;;;;;;24.53;10.23;;;7.20;99.90;;;;;;5020256;28;36926;-76
2022/01/27 05:23:39;;;;;;;28.03;11.43;;;7.20;99.90;;;;;;5034146;28;39108;-77
2022/01/27 05:26:10;;;;;;;27.87;12.80;;;7.20;99.90;;;;;;5033598;28;38435;-76
2022/01/27 05:28:40;;;;;;;26.73;10.73;;;7.20;99.90;;;;;;5034294;28;38277;-77
2022/01/27 05:31:06;;;;;;;31.67;11.10;;;7.30;99.90;;;;;;5034676;28;36359;-76
2022/01/27 05:33:36;;;;;;;31.70;11.50;;;7.30;99.90;;;;;;5025635;28;38810;-77
2022/01/27 05:36:08;;;;;;;28.07;11.07;;;7.30;99.90;;;;;;5037819;28;39095;-77
2022/01/27 05:38:35;;;;;;;27.77;11.20;;;7.30;99.90;;;;;;5051537;28;37279;-77
2022/01/27 05:41:01;;;;;;;29.97;11.87;;;7.40;99.90;;;;;;5055927;28;36306;-77
2022/01/27 05:43:33;;;;;;;29.17;11.97;;;7.40;99.90;;;;;;5059404;28;38561;-77
2022/01/27 05:46:00;;;;;;;27.63;9.95;;;7.50;99.90;;;;;;5045010;27;41434;-77
2022/01/27 05:48:26;;;;;;;31.97;11.40;;;7.50;99.90;;;;;;5072186;28;37002;-77
2022/01/27 05:50:52;;;;;;;31.13;10.13;;;7.50;99.90;;;;;;5048711;28;35914;-77
2022/01/27 05:53:18;;;;;;;31.17;11.13;;;7.50;99.90;;;;;;5045758;28;38927;-77
2022/01/27 05:55:44;;;;;;;29.40;10.80;;;7.50;99.90;;;;;;5067334;28;39075;-77
2022/01/27 05:58:10;;;;;;;31.77;12.40;;;7.50;99.90;;;;;;5038099;28;37042;-76
2022/01/27 06:00:39;;;;;;;31.83;11.77;;;7.60;99.90;;;;;;5035537;28;38044;-77
2022/01/27 06:03:08;;;;;;;34.87;11.70;;;7.60;99.90;;;;;;5063949;27;39695;-77
2022/01/27 06:05:34;;;;;;;28.23;10.77;;;7.60;99.90;;;;;;5057277;27;37798;-77
2022/01/27 06:08:03;;;;;;;25.50;11.07;;;7.60;99.90;;;;;;5050546;28;36878;-77
2022/01/27 06:10:29;;;;;;;29.47;11.63;;;7.60;99.90;;;;;;5053088;28;47277;-76
2022/01/27 06:12:56;;;;;;;28.93;11.70;;;7.60;99.90;;;;;;5058344;28;37819;-77
2022/01/27 06:15:24;;;;;;;28.23;10.57;;;7.60;99.90;;;;;;5055359;27;37338;-76
2022/01/27 06:17:50;;;;;;;31.67;10.83;;;7.60;99.90;;;;;;5057338;28;36876;-77
2022/01/27 06:20:18;;;;;;;27.70;10.40;;;7.60;99.90;;;;;;5054181;28;37329;-76
2022/01/27 06:22:44;;;;;;;31.03;12.00;;;7.60;99.90;;;;;;5052696;27;38882;-77
2022/01/27 06:25:11;;;;;;;24.83;11.53;;;7.60;99.90;;;;;;5055304;27;38144;-74
2022/01/27 06:27:37;;;;;;;33.07;11.23;;;7.60;99.90;;;;;;5059048;27;37733;-76
2022/01/27 06:30:06;;;;;;;26.60;11.27;;;7.60;99.90;;;;;;5055154;28;36308;-77
2022/01/27 06:32:34;;;;;;;29.80;11.00;;;7.60;99.90;;;;;;5053157;28;47641;-77
2022/01/27 06:35:03;;;;;;;22.67;10.07;;;7.60;99.90;;;;;;5053137;28;37049;-76
2022/01/27 06:37:31;;;;;;;25.70;10.50;;;7.70;99.90;;;;;;5039173;28;47118;-77
2022/01/27 06:39:58;;;;;;;28.40;10.60;;;7.70;99.90;;;;;;5036710;28;35598;-77
2022/01/27 06:42:24;;;;;;;30.87;10.43;;;7.70;99.90;;;;;;5036240;28;39453;-77
2022/01/27 06:44:50;;;;;;;36.50;13.13;;;7.70;99.90;;;;;;5032845;28;36676;-77
2022/01/27 06:47:16;;;;;;;21.80;10.70;;;7.70;99.90;;;;;;5036048;28;37457;-76
2022/01/27 06:49:42;;;;;;;29.40;11.67;;;7.70;99.90;;;;;;5034645;28;36275;-76
2022/01/27 06:52:08;;;;;;;27.37;11.47;;;7.70;99.90;;;;;;5036019;28;37497;-76
2022/01/27 06:54:35;;;;;;;30.67;11.40;;;7.70;99.90;;;;;;5036185;28;38229;-77
2022/01/27 06:57:01;;;;;;;27.70;10.23;;;7.70;99.90;;;;;;5038796;28;37412;-77
2022/01/27 06:59:27;;;;;;;31.77;11.40;;;7.70;99.90;;;;;;5039305;28;37543;-77
2022/01/27 07:01:54;;;;;;;26.03;11.03;;;7.70;99.90;;;;;;5035064;28;38282;-75
2022/01/27 07:04:20;;;;;;;33.03;10.53;;;7.70;99.90;;;;;;5040561;28;39035;-77
2022/01/27 07:06:51;;;;;;;29.93;10.43;;;7.70;99.90;;;;;;5034364;28;38305;-77
2022/01/27 07:09:18;;;;;;;28.88;10.38;;;7.70;99.90;;;;;;5023675;28;38251;-77
2022/01/27 07:11:44;;;;;;;27.90;10.13;;;7.70;99.90;;;;;;5030902;28;39390;-77
2022/01/27 07:14:11;;;;;;;22.27;9.67;;;7.70;99.90;;;;;;5036446;28;39840;-76
2022/01/27 07:16:38;;;;;;;29.43;10.13;;;7.70;99.90;;;;;;5032426;28;37249;-76
2022/01/27 07:19:04;;;;;;;26.67;9.63;;;7.70;99.90;;;;;;5029710;28;39217;-76
2022/01/27 07:21:30;;;;;;;24.87;9.40;;;7.70;99.90;;;;;;5032597;28;38942;-77
2022/01/27 07:23:56;;;;;;;25.00;9.80;;;7.70;99.90;;;;;;5032640;28;38686;-77
2022/01/27 07:26:25;;;;;;;33.60;11.27;;;7.70;99.90;;;;;;5032668;28;37830;-77
2022/01/27 07:28:53;;;;;;;30.90;11.13;;;7.60;99.90;;;;;;5039635;28;39057;-77
2022/01/27 07:31:19;;;;;;;33.20;13.03;;;7.50;99.90;;;;;;5040317;28;39716;-77
2022/01/27 07:33:48;;;;;;;34.07;13.33;;;7.40;99.90;;;;;;5039835;28;39285;-77
2022/01/27 07:36:18;;;;;;;34.57;11.47;;;7.40;99.90;;;;;;5049764;27;38355;-76
2022/01/27 07:38:46;;;;;;;28.57;11.17;;;7.30;99.90;;;;;;5062028;28;39118;-76
2022/01/27 07:41:16;;;;;;;30.30;11.30;;;7.30;99.90;;;;;;5059998;27;40207;-76
2022/01/27 07:43:43;;;;;;;33.07;11.73;;;7.30;99.90;;;;;;5069211;28;38679;-75
2022/01/27 07:46:11;;;;;;;35.57;12.20;;;7.30;99.90;;;;;;5077762;27;38225;-76
2022/01/27 07:48:38;;;;;;;32.67;11.70;;;7.30;99.90;;;;;;5058623;28;36460;-75
2022/01/27 07:51:06;;;;;;;31.63;11.63;;;7.30;99.90;;;;;;5060641;27;38362;-75
2022/01/27 07:53:33;;;;;;;30.20;12.13;;;7.30;99.90;;;;;;5059249;28;38674;-75
2022/01/27 07:56:01;;;;;;;32.93;12.20;;;7.30;99.90;;;;;;5062228;28;37704;-75
2022/01/27 07:58:29;;;;;;;30.63;11.57;;;7.30;99.90;;;;;;5079420;28;49942;-77
2022/01/27 08:00:56;;;;;;;34.03;12.97;;;7.30;99.90;;;;;;5079786;28;38712;-76
2022/01/27 08:03:22;;;;;;;32.17;10.87;;;7.30;99.90;;;;;;5077572;28;38625;-76
2022/01/27 08:05:48;;;;;;;32.17;12.40;;;7.30;99.90;;;;;;5062922;28;37427;-76
2022/01/27 08:08:14;;;;;;;38.30;11.70;;;7.30;99.90;;;;;;5080856;27;37335;-76
2022/01/27 08:10:40;;;;;;;39.13;12.27;;;7.30;99.90;;;;;;5064609;28;38459;-76
2022/01/27 08:13:07;;;;;;;39.37;11.73;;;7.30;99.90;;;;;;5079032;28;38441;-75
2022/01/27 08:15:34;;;;;;;35.20;11.13;;;7.40;99.90;;;;;;5062503;28;37489;-76
2022/01/27 08:18:03;;;;;;;37.87;13.03;;;7.30;99.90;;;;;;5080077;27;36983;-75
2022/01/27 08:20:30;;;;;;;39.60;12.37;;;7.40;99.90;;;;;;5049713;28;47153;-75
2022/01/27 08:22:57;;;;;;;33.93;11.80;;;7.40;99.90;;;;;;5062571;28;40264;-75
2022/01/27 08:25:24;;;;;;;33.27;11.60;;;7.40;99.90;;;;;;5082907;27;39191;-76
2022/01/27 08:27:55;;;;;;;32.03;11.57;;;7.40;99.90;;;;;;5062963;28;38771;-76
2022/01/27 08:30:24;;;;;;;31.47;12.23;;;7.40;99.90;;;;;;5058803;27;39452;-76
2022/01/27 08:32:58;;;;;;;37.07;12.27;;;7.40;99.90;;;;;;5062837;28;39276;-76
2022/01/27 08:35:25;;;;;;;29.10;11.57;;;7.40;99.90;;;;;;5055899;28;37142;-76
2022/01/27 08:37:52;;;;;;;27.60;10.60;;;7.40;99.90;;;;;;5081113;28;37972;-75
2022/01/27 08:40:19;;;;;;;32.03;11.90;;;7.40;99.90;;;;;;5059145;28;39991;-75
2022/01/27 08:42:46;;;;;;;27.10;11.10;;;7.40;99.90;;;;;;5078885;28;37266;-76
2022/01/27 08:45:15;;;;;;;38.40;12.37;;;7.40;99.90;;;;;;5058381;27;38404;-75
2022/01/27 08:47:43;;;;;;;33.57;12.83;;;7.40;99.90;;;;;;5063768;28;37893;-76
2022/01/27 08:50:10;;;;;;;40.63;12.77;;;7.50;99.90;;;;;;5080170;27;38665;-75
2022/01/27 08:52:39;;;;;;;28.77;13.53;;;7.50;99.90;;;;;;5082549;28;38457;-76
2022/01/27 08:55:07;;;;;;;28.37;12.07;;;7.50;99.90;;;;;;5080226;27;38879;-75
2022/01/27 08:57:34;;;;;;;26.93;12.63;;;7.50;99.90;;;;;;5065850;28;38395;-76
2022/01/27 09:00:01;;;;;;;33.30;13.47;;;7.50;99.90;;;;;;5059490;28;38753;-75
2022/01/27 09:02:28;;;;;;;37.67;11.83;;;7.60;99.90;;;;;;5050517;28;48795;-76
2022/01/27 09:04:54;;;;;;;31.90;12.23;;;7.60;99.90;;;;;;5069872;28;36939;-76
2022/01/27 09:07:23;;;;;;;38.47;13.43;;;7.60;99.90;;;;;;5060762;28;38388;-75
2022/01/27 09:09:51;;;;;;;36.20;12.30;;;7.60;99.90;;;;;;5062485;28;38752;-75
2022/01/27 09:12:17;;;;;;;40.20;13.43;;;7.60;99.90;;;;;;5061755;28;38956;-75
2022/01/27 09:14:43;;;;;;;35.53;13.17;;;7.60;99.90;;;;;;5062869;28;38228;-76
2022/01/27 09:17:11;;;;;;;41.73;12.97;;;7.60;99.90;;;;;;5076997;27;36255;-75
2022/01/27 09:19:40;;;;;;;34.87;10.83;;;7.60;99.90;;;;;;5083751;28;39827;-75
2022/01/27 09:22:12;;;;;;;41.10;12.57;;;7.60;99.90;;;;;;5071259;28;38724;-74
2022/01/27 09:24:51;;;;;;;42.67;13.67;;;7.60;99.90;;;;;;5084255;28;37499;-76
2022/01/27 09:27:18;;;;;;;40.73;12.13;;;7.60;99.90;;;;;;5065353;28;37950;-75
2022/01/27 09:29:47;;;;;;;42.77;12.33;;;7.60;99.90;;;;;;5058835;28;39600;-75
2022/01/27 09:32:15;;;;;;;32.90;11.13;;;7.70;99.90;;;;;;5063747;28;38702;-75
2022/01/27 09:34:44;;;;;;;34.90;11.77;;;7.60;99.90;;;;;;5045491;28;39785;-75
2022/01/27 09:37:14;;;;;;;33.87;12.00;;;7.70;99.90;;;;;;5081549;27;38436;-75
2022/01/27 09:39:42;;;;;;;33.77;11.03;;;7.70;99.90;;;;;;5064608;28;39631;-77
2022/01/27 09:42:08;;;;;;;32.33;10.10;;;7.70;99.90;;;;;;5075647;27;38229;-76
2022/01/27 09:44:36;;;;;;;32.27;11.43;;;7.80;99.90;;;;;;5064217;28;39036;-76
2022/01/27 09:47:11;;;;;;;24.57;9.67;;;7.80;99.90;;;;;;5076506;27;37594;-75
2022/01/27 09:49:42;;;;;;;34.63;8.97;;;7.90;99.90;;;;;;5060814;28;39627;-76
2022/01/27 09:52:09;;;;;;;28.27;9.70;;;8.00;99.90;;;;;;5061511;28;38519;-76
2022/01/27 09:54:35;;;;;;;30.47;9.30;;;8.10;99.90;;;;;;5083254;28;38062;-77
2022/01/27 09:57:05;;;;;;;32.87;8.23;;;8.10;99.90;;;;;;5078443;28;37487;-76
2022/01/27 09:59:31;;;;;;;30.77;9.70;;;8.20;99.90;;;;;;5068627;28;38931;-76
2022/01/27 10:02:05;;;;;;;28.23;8.93;;;8.20;99.90;;;;;;5063250;28;37488;-77
2022/01/27 10:04:51;;;;;;;32.73;9.10;;;8.20;99.90;;;;;;5062589;28;47509;-77
2022/01/27 10:07:41;;;;;;;36.73;9.83;;;8.30;99.90;;;;;;5065097;28;36051;-76
2022/01/27 10:10:14;;;;;;;28.40;8.53;;;8.30;99.90;;;;;;5051157;27;37822;-76
2022/01/27 10:12:48;;;;;;;25.63;8.20;;;8.40;99.90;;;;;;5078270;27;39096;-77
2022/01/27 10:15:19;;;;;;;27.77;8.47;;;8.50;99.90;;;;;;5079888;27;38044;-79
2022/01/27 10:18:03;;;;;;;29.57;8.10;;;8.60;99.90;;;;;;5078851;27;36881;-76
2022/01/27 10:20:29;;;;;;;20.63;7.37;;;8.60;99.90;;;;;;5081169;27;48587;-76
2022/01/27 10:23:22;;;;;;;26.67;8.73;;;8.70;99.90;;;;;;5073519;28;37038;-77
2022/01/27 10:25:54;;;;;;;33.37;8.17;;;8.70;99.90;;;;;;5062887;28;47367;-77
2022/01/27 10:28:44;;;;;;;27.67;8.02;;;8.70;99.90;;;;;;5059454;28;37062;-76
2022/01/27 10:31:21;;;;;;;25.43;7.80;;;8.80;99.90;;;;;;5062675;27;37284;-76
2022/01/27 10:34:01;;;;;;;19.20;7.13;;;8.80;99.90;;;;;;5080446;28;39313;-77
2022/01/27 10:36:32;;;;;;;32.40;8.03;;;8.80;99.90;;;;;;5061235;28;47097;-77
2022/01/27 10:39:05;;;;;;;31.90;8.43;;;8.80;99.90;;;;;;5064888;28;36205;-77
2022/01/27 10:41:34;;;;;;;27.50;7.37;;;8.90;99.90;;;;;;5076576;27;48889;-76
2022/01/27 10:44:17;;;;;;;27.63;7.93;;;8.90;99.90;;;;;;5079296;28;39394;-77
2022/01/27 10:47:05;;;;;;;21.98;7.20;;;8.90;99.90;;;;;;5075920;28;48494;-77
2022/01/27 10:49:41;;;;;;;23.43;7.50;;;8.80;99.90;;;;;;5063740;28;47180;-77
2022/01/27 10:52:32;;;;;;;24.70;7.87;;;8.80;99.90;;;;;;5063178;27;40342;-77
2022/01/27 10:55:04;;;;;;;22.53;7.40;;;8.80;99.90;;;;;;5080857;28;38397;-77
2022/01/27 10:57:30;;;;;;;31.08;7.47;;;8.90;99.90;;;;;;5079326;28;47188;-77
2022/01/27 11:00:12;;;;;;;23.80;8.17;;;8.90;99.90;;;;;;5059862;28;38012;-77
2022/01/27 11:02:47;;;;;;;26.33;8.00;;;9.00;99.90;;;;;;5075919;28;49164;-76
2022/01/27 11:05:18;;;;;;;17.70;6.43;;;9.10;99.90;;;;;;5080393;28;37895;-76
2022/01/27 11:07:48;;;;;;;31.90;7.30;;;9.10;99.90;;;;;;5060162;28;37904;-77
2022/01/27 11:10:19;;;;;;;24.90;7.03;;;9.10;99.90;;;;;;5062433;28;36368;-76
2022/01/27 11:12:46;;;;;;;21.17;7.00;;;9.20;99.90;;;;;;5079621;28;39632;-76
2022/01/27 11:15:16;;;;;;;25.20;8.20;;;9.20;99.90;;;;;;5078263;27;38586;-77
2022/01/27 11:17:46;;;;;;;24.57;7.23;;;9.20;99.90;;;;;;5060065;28;37737;-77
2022/01/27 11:20:31;;;;;;;33.77;7.97;;;9.20;99.90;;;;;;5065034;27;36712;-77
2022/01/27 11:23:24;;;;;;;21.50;6.53;;;9.20;99.90;;;;;;5063579;28;38034;-77
2022/01/27 11:25:51;;;;;;;29.30;6.90;;;9.30;99.90;;;;;;5076762;28;48736;-77
2022/01/27 11:28:20;;;;;;;22.83;6.67;;;9.30;99.90;;;;;;5059194;28;36948;-77
2022/01/27 11:30:48;;;;;;;24.23;6.70;;;9.30;99.90;;;;;;5062444;28;36960;-77
2022/01/27 11:33:15;;;;;;;22.37;6.67;;;9.30;99.90;;;;;;5061757;28;39075;-76
2022/01/27 11:35:42;;;;;;;27.37;7.37;;;9.40;99.90;;;;;;5081556;28;39436;-77
2022/01/27 11:38:12;;;;;;;20.83;6.20;;;9.40;99.90;;;;;;5079452;27;38207;-77
2022/01/27 11:40:40;;;;;;;18.43;6.60;;;9.40;99.90;;;;;;5062248;28;36116;-77
2022/01/27 11:43:17;;;;;;;17.47;5.67;;;9.50;99.90;;;;;;5049621;28;38787;-77
2022/01/27 11:45:48;;;;;;;28.80;6.50;;;9.60;99.90;;;;;;5061086;28;38878;-77
2022/01/27 11:48:26;;;;;;;20.63;6.80;;;9.60;99.90;;;;;;5079366;28;38364;-77
2022/01/27 11:51:15;;;;;;;33.03;7.00;;;9.70;99.90;;;;;;5081781;27;38137;-77
2022/01/27 11:53:49;;;;;;;17.57;5.90;;;9.70;99.90;;;;;;5061067;28;47178;-77
2022/01/27 11:56:23;;;;;;;21.40;6.40;;;9.70;99.90;;;;;;5066241;28;38080;-77
2022/01/27 11:58:52;;;;;;;22.97;5.97;;;9.80;99.90;;;;;;5076582;28;38769;-77
2022/01/27 12:01:23;;;;;;;24.00;6.57;;;9.90;99.90;;;;;;5063493;27;36063;-77
2022/01/27 12:04:13;;;;;;;24.40;5.70;;;9.90;99.90;;;;;;5080336;28;38677;-77
2022/01/27 12:07:06;;;;;;;24.93;6.03;;;9.90;99.90;;;;;;5058190;28;47431;-77
2022/01/27 12:09:34;;;;;;;22.33;5.13;;;9.90;99.90;;;;;;5050926;28;47359;-77
2022/01/27 12:12:03;;;;;;;30.87;5.73;;;10.00;99.90;;;;;;5076288;28;37200;-76
2022/01/27 12:14:31;;;;;;;22.27;5.33;;;10.00;99.90;;;;;;5075886;28;48387;-76
2022/01/27 12:17:07;;;;;;;23.43;5.07;;;10.20;99.90;;;;;;5055247;28;38491;-75
2022/01/27 12:20:08;;;;;;;23.10;4.83;;;10.20;99.90;;;;;;5080016;27;47512;-75
2022/01/27 12:22:46;;;;;;;23.87;5.07;;;10.20;99.90;;;;;;5071761;28;48755;-76
2022/01/27 12:25:14;;;;;;;23.90;5.23;;;10.20;99.90;;;;;;5062242;28;35404;-75
2022/01/27 12:27:43;;;;;;;19.73;5.63;;;10.10;99.90;;;;;;5062656;28;37636;-75
2022/01/27 12:30:10;;;;;;;22.30;5.53;;;10.10;99.90;;;;;;5083514;27;38252;-75
2022/01/27 12:32:36;;;;;;;26.80;6.60;;;10.10;99.90;;;;;;5066175;28;37059;-76
2022/01/27 12:35:15;;;;;;;22.37;5.27;;;10.10;99.90;;;;;;5085965;28;38923;-74
2022/01/27 12:37:47;;;;;;;20.43;5.70;;;10.10;99.90;;;;;;5060212;28;47517;-77
2022/01/27 12:40:17;;;;;;;26.02;5.80;;;10.10;99.90;;;;;;5067300;27;38502;-75
2022/01/27 12:42:58;;;;;;;19.77;5.00;;;10.10;99.90;;;;;;5086265;28;38444;-76
2022/01/27 12:45:29;;;;;;;16.83;5.33;;;10.20;99.90;;;;;;5065744;27;37585;-75
2022/01/27 12:48:00;;;;;;;20.87;5.17;;;10.30;99.90;;;;;;5055130;28;37754;-76
2022/01/27 12:50:28;;;;;;;16.33;5.47;;;10.40;99.90;;;;;;5080064;27;47656;-75
2022/01/27 12:53:01;;;;;;;15.23;4.60;;;10.50;99.90;;;;;;5082003;28;37290;-75
2022/01/27 12:55:35;;;;;;;20.60;5.40;;;10.60;99.90;;;;;;5073729;28;49052;-76
2022/01/27 12:58:12;;;;;;;22.53;5.33;;;10.60;99.90;;;;;;5066835;27;37543;-74
2022/01/27 13:00:41;;;;;;;15.47;4.77;;;10.60;99.90;;;;;;5082320;27;38846;-76
2022/01/27 13:03:08;;;;;;;20.63;4.97;;;10.70;99.90;;;;;;5067582;28;37137;-75
2022/01/27 13:05:38;;;;;;;13.33;4.10;;;10.80;99.90;;;;;;5067752;28;38844;-75
2022/01/27 13:08:06;;;;;;;16.60;4.90;;;10.80;99.90;;;;;;5078684;28;39103;-75
2022/01/27 13:10:32;;;;;;;19.37;5.20;;;10.90;99.90;;;;;;5079049;28;37996;-76
2022/01/27 13:13:11;;;;;;;20.40;4.77;;;10.80;99.90;;;;;;5064440;28;36067;-76
2022/01/27 13:15:38;;;;;;;16.90;4.80;;;10.80;99.90;;;;;;5083600;28;48727;-75
2022/01/27 13:18:23;;;;;;;17.00;5.30;;;10.90;99.90;;;;;;5083085;27;38553;-75
2022/01/27 13:20:55;;;;;;;17.20;3.97;;;10.90;99.90;;;;;;5084699;28;38243;-75
2022/01/27 13:23:34;;;;;;;12.27;4.03;;;10.80;99.90;;;;;;5082802;27;37818;-75
2022/01/27 13:26:05;;;;;;;13.13;4.57;;;10.80;99.90;;;;;;5080786;28;38603;-75
2022/01/27 13:28:35;;;;;;;15.60;4.43;;;10.70;99.90;;;;;;5082465;28;48233;-76